Terminal Aerodrome Forecast
Issued by NWS Quad Cities IA IL

Home | Current Version | Previous Version | Text Only | Print | Product List | Glossary On
Versions: 1 2 3 4 5 6 7 8 9 10 11 12 13 14 15 16 17
000
FTUS43 KDVN 211700
TAFMLI
TAF
KMLI 211720Z 2118/2218 05007KT P6SM SCT035
     FM220000 08005KT P6SM SKC
     FM221200 11004KT P6SM FEW020=

USA.gov is the U.S. government's official web portal to all federal, state and local government web resources and services.